Time;durP1;ratioP1;P1;durP2;ratioP2;P2;SDS_P1;SDS_P2;PMS_P1;PMS_P2;Temp;Humidity;BMP_temperature;BMP_pressure;BME280_temperature;BME280_humidity;BME280_pressure;Samples;Min_cycle;Max_cycle;Signal;HPM_P1;HPM_P2
2022/02/23 00:02:23;;;;;;;2.17;0.93;;;20.60;55.50;;;;;;21012475;28;20055;-62
2022/02/23 00:12:25;;;;;;;1.48;0.65;;;20.40;55.80;;;;;;21029276;28;20082;-62
2022/02/23 00:22:29;;;;;;;2.03;0.90;;;20.20;56.00;;;;;;21038864;28;20090;-62
2022/02/23 00:32:31;;;;;;;1.88;0.75;;;20.10;56.00;;;;;;21068284;28;20050;-61
2022/02/23 00:42:33;;;;;;;1.42;0.80;;;20.40;56.40;;;;;;21005365;28;20051;-60
2022/02/23 00:52:35;;;;;;;1.92;0.88;;;21.70;55.30;;;;;;21000717;28;20442;-61
2022/02/23 01:02:39;;;;;;;1.70;0.90;;;22.90;54.00;;;;;;21005828;28;20454;-62
2022/02/23 01:12:40;;;;;;;1.42;0.70;;;24.00;52.40;;;;;;21049568;28;20044;-61
2022/02/23 01:22:42;;;;;;;2.70;1.20;;;24.60;51.00;;;;;;21009773;28;20419;-62
2022/02/23 01:32:44;;;;;;;1.25;0.70;;;24.70;50.40;;;;;;21031455;28;20048;-62
2022/02/23 01:42:47;;;;;;;1.85;0.90;;;24.40;50.10;;;;;;21044472;28;20056;-62
2022/02/23 01:52:48;;;;;;;1.05;0.50;;;23.90;50.10;;;;;;21007707;28;20094;-62
2022/02/23 02:02:50;;;;;;;2.00;0.93;;;23.50;50.10;;;;;;21021748;28;20052;-61
2022/02/23 02:12:52;;;;;;;2.10;0.60;;;22.80;50.30;;;;;;21000839;28;20499;-61
2022/02/23 02:22:55;;;;;;;1.42;0.80;;;22.20;51.00;;;;;;21060140;28;20074;-61
2022/02/23 02:32:57;;;;;;;1.75;0.68;;;21.50;51.40;;;;;;21053028;28;20113;-61
2022/02/23 02:43:02;;;;;;;2.50;0.50;;;21.10;52.50;;;;;;20983149;28;20106;-60
2022/02/23 02:53:04;;;;;;;0.75;0.50;;;20.70;53.20;;;;;;21050911;28;20127;-61
2022/02/23 03:03:07;;;;;;;1.25;0.63;;;20.40;54.10;;;;;;21018720;28;20052;-60
2022/02/23 03:13:10;;;;;;;1.60;0.40;;;20.20;54.80;;;;;;21034673;28;20044;-61
2022/02/23 03:23:13;;;;;;;0.85;0.68;;;19.90;55.30;;;;;;21051573;28;20479;-60
2022/02/23 03:33:16;;;;;;;2.05;0.57;;;19.70;55.50;;;;;;21034336;28;20407;-61
2022/02/23 03:43:19;;;;;;;1.67;0.70;;;19.60;55.80;;;;;;20992752;28;20048;-60
2022/02/23 03:53:21;;;;;;;0.35;0.30;;;19.60;56.60;;;;;;20964193;28;20126;-60
2022/02/23 04:03:23;;;;;;;0.77;0.40;;;20.90;55.90;;;;;;21047374;28;20252;-61
2022/02/23 04:13:26;;;;;;;0.60;0.30;;;22.40;54.40;;;;;;21071844;28;20457;-60
2022/02/23 04:23:28;;;;;;;1.00;0.60;;;23.60;52.60;;;;;;21029459;28;20052;-60
2022/02/23 04:33:31;;;;;;;0.52;0.30;;;24.40;51.00;;;;;;21028449;28;20044;-59
2022/02/23 04:43:35;;;;;;;0.65;0.30;;;24.50;50.20;;;;;;20988806;28;20059;-60
2022/02/23 04:53:44;;;;;;;1.15;0.40;;;24.10;50.30;;;;;;21009872;28;20484;-63
2022/02/23 05:03:46;;;;;;;0.70;0.40;;;23.60;50.10;;;;;;21052305;28;20499;-60
2022/02/23 05:13:51;;;;;;;0.57;0.40;;;23.00;50.40;;;;;;20995120;28;20060;-61
2022/02/23 05:23:54;;;;;;;0.68;0.40;;;22.20;50.90;;;;;;20986406;28;20052;-60
2022/02/23 05:33:57;;;;;;;4.85;1.45;;;21.60;51.90;;;;;;21013985;28;20048;-62
2022/02/23 05:43:59;;;;;;;8.45;1.77;;;21.10;52.80;;;;;;21000726;28;20052;-60
2022/02/23 05:54:02;;;;;;;8.68;1.90;;;20.80;53.80;;;;;;21000567;28;20063;-60
2022/02/23 06:04:04;;;;;;;4.78;1.83;;;20.40;54.60;;;;;;20999742;28;20053;-61
2022/02/23 06:14:06;;;;;;;10.32;1.88;;;20.20;55.20;;;;;;20999230;28;20080;-60
2022/02/23 06:24:12;;;;;;;5.30;1.20;;;19.80;55.80;;;;;;20995556;28;20133;-61
2022/02/23 06:34:14;;;;;;;6.50;1.50;;;19.70;56.40;;;;;;20946036;28;20060;-64
2022/02/23 06:44:24;;;;;;;5.60;1.08;;;19.70;56.80;;;;;;20963680;28;20056;-62
2022/02/23 06:54:34;;;;;;;6.80;1.20;;;19.60;57.10;;;;;;20994300;28;20061;-63
2022/02/23 07:04:41;;;;;;;3.15;1.15;;;19.50;58.00;;;;;;20993169;28;20155;-61
2022/02/23 07:14:44;;;;;;;5.03;1.17;;;19.50;58.60;;;;;;20992128;28;20056;-62
2022/02/23 07:24:47;;;;;;;3.38;1.10;;;19.50;58.40;;;;;;20991173;28;20059;-63
2022/02/23 07:34:52;;;;;;;4.82;1.08;;;19.40;58.30;;;;;;20972451;28;20098;-63
2022/02/23 07:53:08;;;;;;;5.60;2.05;;;19.40;58.20;;;;;;21311446;27;20752;-63
2022/02/23 08:03:11;;;;;;;3.35;1.05;;;19.30;57.90;;;;;;21224137;27;20055;-62
2022/02/23 08:13:15;;;;;;;5.13;1.58;;;19.20;58.10;;;;;;21195425;27;20479;-63
2022/02/23 08:23:17;;;;;;;4.93;1.38;;;19.20;58.20;;;;;;21140534;28;20048;-64
2022/02/23 08:33:21;;;;;;;3.38;1.15;;;;;;;;;;21182619;28;20066;-63
2022/02/23 08:43:23;;;;;;;2.53;0.85;;;19.70;57.50;;;;;;21225894;27;20059;-63
2022/02/23 08:53:25;;;;;;;3.95;1.08;;;19.20;58.80;;;;;;21187956;27;20048;-62
2022/02/23 09:03:26;;;;;;;2.13;1.17;;;19.00;58.70;;;;;;21128746;28;20548;-61
2022/02/23 09:13:28;;;;;;;2.78;1.17;;;19.10;58.80;;;;;;21121266;28;20048;-63
2022/02/23 09:23:32;;;;;;;4.32;1.10;;;19.10;58.80;;;;;;21165025;28;20478;-64
2022/02/23 09:33:34;;;;;;;3.28;1.10;;;19.10;58.50;;;;;;21165059;28;20406;-64
2022/02/23 09:43:37;;;;;;;3.72;1.10;;;19.10;58.40;;;;;;21163684;28;20067;-64
2022/02/23 09:53:45;;;;;;;3.63;1.05;;;19.10;58.30;;;;;;21163516;28;20075;-65
2022/02/23 10:03:50;;;;;;;1.80;1.10;;;19.20;58.30;;;;;;21162522;28;20162;-64
2022/02/23 10:13:52;;;;;;;1.85;0.75;;;19.20;58.30;;;;;;21159785;28;20089;-62
2022/02/23 10:24:22;;;;;;;2.67;1.00;;;19.30;58.30;;;;;;21161069;28;20079;-64
2022/02/23 10:34:25;;;;;;;1.77;0.60;;;19.40;58.40;;;;;;21160250;28;20052;-64
2022/02/23 10:44:29;;;;;;;1.98;0.85;;;19.40;58.40;;;;;;21159552;28;20083;-64
2022/02/23 10:54:31;;;;;;;2.03;0.60;;;19.40;58.30;;;;;;21159293;28;20130;-64
2022/02/23 11:04:33;;;;;;;1.85;0.80;;;19.50;58.30;;;;;;21158534;28;20158;-64
2022/02/23 11:14:36;;;;;;;2.65;0.63;;;19.60;58.20;;;;;;21146274;28;20514;-64
2022/02/23 11:24:39;;;;;;;3.05;0.77;;;19.60;58.30;;;;;;21072743;28;20471;-64
2022/02/23 11:34:41;;;;;;;1.45;0.70;;;;;;;;;;21072416;28;20051;-65
2022/02/23 11:44:49;;;;;;;2.47;0.77;;;20.00;57.90;;;;;;21072176;28;20101;-65
2022/02/23 11:55:09;;;;;;;1.02;0.70;;;19.80;58.10;;;;;;21070969;28;20055;-65
2022/02/23 12:05:34;;;;;;;1.73;0.90;;;19.90;58.00;;;;;;21071546;28;20052;-66
2022/02/23 12:15:40;;;;;;;0.93;0.60;;;20.00;58.00;;;;;;21072631;28;20044;-65
2022/02/23 12:25:49;;;;;;;1.55;0.73;;;20.00;57.90;;;;;;21151523;28;20047;-66
2022/02/23 12:35:53;;;;;;;1.52;0.70;;;20.00;57.90;;;;;;21163747;28;20414;-64
2022/02/23 12:45:59;;;;;;;1.98;0.55;;;20.10;57.80;;;;;;21169925;28;20052;-65
2022/02/23 12:56:36;;;;;;;1.25;0.47;;;20.20;57.80;;;;;;21169278;28;20122;-65
2022/02/23 13:06:50;;;;;;;1.45;0.43;;;20.20;57.60;;;;;;21154844;28;20417;-66
2022/02/23 13:16:55;;;;;;;1.48;0.70;;;20.20;57.60;;;;;;21167535;28;20055;-63
2022/02/23 13:26:57;;;;;;;0.63;0.50;;;20.20;57.50;;;;;;21165156;28;20510;-63
2022/02/23 13:37:14;;;;;;;2.17;0.45;;;20.20;57.30;;;;;;21094322;28;20384;-64
2022/02/23 13:47:22;;;;;;;1.02;0.60;;;20.30;57.30;;;;;;21080883;28;20487;-64
2022/02/23 13:57:24;;;;;;;;;;;20.30;57.20;;;;;;21080712;28;20140;-64
2022/02/23 14:07:26;;;;;;;1.25;0.55;;;20.30;57.20;;;;;;21084426;28;19972;-67
2022/02/23 14:17:29;;;;;;;1.73;0.60;;;20.30;57.10;;;;;;21147842;28;20051;-66
2022/02/23 14:27:35;;;;;;;3.38;1.42;;;20.60;56.20;;;;;;21151694;28;20146;-66
2022/02/23 14:37:41;;;;;;;2.88;1.90;;;20.70;55.50;;;;;;21127816;28;20138;-58
2022/02/23 14:47:49;;;;;;;4.90;2.20;;;20.70;55.40;;;;;;21159707;28;20100;-60
2022/02/23 14:57:50;;;;;;;3.22;2.15;;;20.80;55.40;;;;;;21158740;28;20125;-60
2022/02/23 15:07:55;;;;;;;3.10;1.80;;;20.90;55.00;;;;;;21158682;28;20138;-60
2022/02/23 15:17:57;;;;;;;3.92;1.70;;;21.00;54.90;;;;;;21157038;28;20043;-60
2022/02/23 15:28:00;;;;;;;3.30;1.90;;;21.00;54.90;;;;;;21157311;28;20055;-60
2022/02/23 15:38:02;;;;;;;2.28;1.48;;;21.00;54.90;;;;;;21156212;28;20127;-60
2022/02/23 15:48:04;;;;;;;2.20;1.50;;;20.90;55.00;;;;;;21155583;28;20043;-60
2022/02/23 15:58:07;;;;;;;2.50;1.35;;;20.90;54.90;;;;;;21156128;28;20097;-59
2022/02/23 16:08:09;;;;;;;3.70;1.63;;;20.90;54.70;;;;;;21161349;28;20112;-60
2022/02/23 16:18:12;;;;;;;3.15;1.40;;;20.90;54.60;;;;;;21171922;28;20050;-61
2022/02/23 16:28:14;;;;;;;3.17;1.52;;;20.90;54.70;;;;;;21171642;28;20055;-60
2022/02/23 16:38:15;;;;;;;2.92;1.67;;;20.80;54.80;;;;;;21169731;28;20039;-59
2022/02/23 16:48:17;;;;;;;2.38;1.23;;;20.80;54.90;;;;;;21169651;28;20044;-60
2022/02/23 16:58:19;;;;;;;3.60;1.65;;;20.70;55.00;;;;;;21168075;28;20052;-60
2022/02/23 17:08:21;;;;;;;5.25;1.50;;;20.60;55.20;;;;;;21167926;28;20055;-60
2022/02/23 17:18:23;;;;;;;2.20;1.30;;;20.50;55.40;;;;;;21153738;28;20605;-62
2022/02/23 17:28:26;;;;;;;3.08;1.20;;;;;;;;;;21164251;28;20375;-63
2022/02/23 17:38:28;;;;;;;2.42;1.33;;;20.60;55.90;;;;;;21163763;28;20487;-62
2022/02/23 17:48:30;;;;;;;2.63;1.40;;;20.60;55.90;;;;;;21163028;28;20456;-62
2022/02/23 17:58:32;;;;;;;2.35;1.15;;;20.40;56.40;;;;;;21162030;28;20506;-61
2022/02/23 18:08:34;;;;;;;2.35;1.20;;;20.30;56.60;;;;;;21161900;28;20078;-64
2022/02/23 18:18:36;;;;;;;2.72;1.40;;;20.30;56.70;;;;;;21118536;28;20455;-62
2022/02/23 18:28:37;;;;;;;2.85;1.20;;;20.20;56.80;;;;;;21156469;28;20103;-65
2022/02/23 18:38:39;;;;;;;3.90;1.48;;;20.50;56.40;;;;;;21128116;28;20054;-66
2022/02/23 18:48:41;;;;;;;3.15;1.48;;;20.10;57.00;;;;;;21158727;28;20043;-62
2022/02/23 18:58:43;;;;;;;3.03;1.10;;;20.10;57.10;;;;;;21153970;28;20124;-60
2022/02/23 19:08:44;;;;;;;2.15;1.20;;;20.00;57.30;;;;;;21118890;28;20066;-62
2022/02/23 19:18:47;;;;;;;2.45;1.20;;;19.90;57.60;;;;;;21097292;28;20058;-63
2022/02/23 19:28:49;;;;;;;4.45;1.20;;;19.90;57.90;;;;;;21153145;28;20056;-61
2022/02/23 19:38:50;;;;;;;7.40;1.63;;;19.90;58.10;;;;;;21110075;28;20050;-61
2022/02/23 19:48:53;;;;;;;3.17;1.35;;;19.90;58.20;;;;;;21134641;28;20051;-61
2022/02/23 19:58:54;;;;;;;2.67;1.13;;;19.90;58.30;;;;;;21114955;28;20391;-63
2022/02/23 20:08:57;;;;;;;2.17;1.42;;;19.80;58.50;;;;;;21134192;28;20056;-63
2022/02/23 20:18:58;;;;;;;2.13;1.05;;;19.80;58.50;;;;;;21119239;28;20055;-61
2022/02/23 20:29:00;;;;;;;4.10;1.42;;;19.70;58.50;;;;;;21098485;28;20060;-61
2022/02/23 20:39:04;;;;;;;7.05;1.88;;;19.70;58.60;;;;;;21069876;28;20062;-74
2022/02/23 20:49:06;;;;;;;7.05;1.60;;;19.70;58.50;;;;;;21070783;28;20463;-69
2022/02/23 20:59:08;;;;;;;4.45;1.60;;;19.60;58.50;;;;;;21112321;28;20048;-67
2022/02/23 21:09:10;;;;;;;48.45;19.45;;;19.70;58.40;;;;;;21102717;28;20044;-65
2022/02/23 21:19:12;;;;;;;3.08;1.60;;;19.60;58.40;;;;;;21111059;28;20043;-62
2022/02/23 21:29:14;;;;;;;3.58;1.25;;;19.60;58.30;;;;;;21116472;28;20486;-61
2022/02/23 21:39:15;;;;;;;4.13;1.33;;;19.60;58.40;;;;;;21100625;28;20056;-62
2022/02/23 21:49:17;;;;;;;4.82;1.48;;;19.50;58.40;;;;;;21097323;28;20130;-65
2022/02/23 21:59:21;;;;;;;9.63;1.83;;;;;;;;;;21157283;28;20135;-64
2022/02/23 22:09:25;;;;;;;2.55;1.42;;;;;;;;;;21161527;28;20060;-64
2022/02/23 22:19:27;;;;;;;5.70;1.45;;;19.40;58.30;;;;;;21156283;28;20520;-61
2022/02/23 22:29:32;;;;;;;5.50;1.27;;;19.30;58.50;;;;;;21111212;28;20103;-63
2022/02/23 22:39:33;;;;;;;6.10;1.50;;;19.20;58.60;;;;;;21096623;28;20051;-61
2022/02/23 22:49:35;;;;;;;3.92;1.35;;;19.20;58.60;;;;;;21109240;28;20075;-62
2022/02/23 22:59:37;;;;;;;3.45;1.38;;;19.20;58.80;;;;;;21116749;28;20179;-63
2022/02/23 23:09:38;;;;;;;2.85;1.67;;;19.50;59.10;;;;;;21110447;28;20051;-63
2022/02/23 23:19:40;;;;;;;2.72;1.15;;;20.70;58.00;;;;;;21115791;28;20109;-63
2022/02/23 23:29:42;;;;;;;2.28;1.30;;;;;;;;;;21099006;28;20055;-63
2022/02/23 23:39:44;;;;;;;3.42;1.15;;;23.10;54.80;;;;;;21119709;28;20525;-64
2022/02/23 23:49:46;;;;;;;3.72;1.20;;;24.00;53.00;;;;;;21114646;28;20048;-63
2022/02/23 23:59:51;;;;;;;3.03;1.33;;;24.60;51.50;;;;;;21117555;28;20504;-67
